sensor_id;sensor_type;location;lat;lon;timestamp;temperature;humidity
66013;DHT22;52783;50.502;8.190;2023-03-14T00:00:35;10.60;99.90
66013;DHT22;52783;50.502;8.190;2023-03-14T00:03:00;10.60;99.90
66013;DHT22;52783;50.502;8.190;2023-03-14T00:05:26;10.50;99.90
66013;DHT22;52783;50.502;8.190;2023-03-14T00:07:52;10.60;99.90
66013;DHT22;52783;50.502;8.190;2023-03-14T00:10:17;10.50;99.90
66013;DHT22;52783;50.502;8.190;2023-03-14T00:12:43;10.50;99.90
66013;DHT22;52783;50.502;8.190;2023-03-14T00:15:10;10.50;99.90
66013;DHT22;52783;50.502;8.190;2023-03-14T00:17:37;10.50;99.90
66013;DHT22;52783;50.502;8.190;2023-03-14T00:20:05;10.60;99.90
66013;DHT22;52783;50.502;8.190;2023-03-14T00:22:35;10.60;99.90
66013;DHT22;52783;50.502;8.190;2023-03-14T00:25:01;10.60;99.90
66013;DHT22;52783;50.502;8.190;2023-03-14T00:27:27;10.60;99.90
66013;DHT22;52783;50.502;8.190;2023-03-14T00:29:53;10.60;99.90
66013;DHT22;52783;50.502;8.190;2023-03-14T00:32:18;10.60;99.90
66013;DHT22;52783;50.502;8.190;2023-03-14T00:34:44;10.60;99.90
66013;DHT22;52783;50.502;8.190;2023-03-14T00:37:09;10.60;99.90
66013;DHT22;52783;50.502;8.190;2023-03-14T00:39:35;10.60;99.90
66013;DHT22;52783;50.502;8.190;2023-03-14T00:42:00;10.60;99.90
66013;DHT22;52783;50.502;8.190;2023-03-14T00:44:26;10.60;99.90
66013;DHT22;52783;50.502;8.190;2023-03-14T00:46:51;10.60;99.90
66013;DHT22;52783;50.502;8.190;2023-03-14T00:49:17;10.60;99.90
66013;DHT22;52783;50.502;8.190;2023-03-14T00:51:43;10.60;99.90
66013;DHT22;52783;50.502;8.190;2023-03-14T00:54:08;10.60;99.90
66013;DHT22;52783;50.502;8.190;2023-03-14T00:56:34;10.60;99.90
66013;DHT22;52783;50.502;8.190;2023-03-14T00:58:59;10.60;99.90
66013;DHT22;52783;50.502;8.190;2023-03-14T01:01:25;10.60;99.90
66013;DHT22;52783;50.502;8.190;2023-03-14T01:03:54;10.60;99.90
66013;DHT22;52783;50.502;8.190;2023-03-14T01:06:25;10.60;99.90
66013;DHT22;52783;50.502;8.190;2023-03-14T01:08:52;10.60;99.90
66013;DHT22;52783;50.502;8.190;2023-03-14T01:11:23;10.60;99.90
66013;DHT22;52783;50.502;8.190;2023-03-14T01:13:49;10.60;99.90
66013;DHT22;52783;50.502;8.190;2023-03-14T01:16:16;10.60;99.90
66013;DHT22;52783;50.502;8.190;2023-03-14T01:18:43;10.50;99.90
66013;DHT22;52783;50.502;8.190;2023-03-14T01:21:28;10.60;99.90
66013;DHT22;52783;50.502;8.190;2023-03-14T01:23:55;10.50;99.90
66013;DHT22;52783;50.502;8.190;2023-03-14T01:26:23;10.40;99.90
66013;DHT22;52783;50.502;8.190;2023-03-14T01:28:50;10.40;99.90
66013;DHT22;52783;50.502;8.190;2023-03-14T01:31:17;10.30;99.90
66013;DHT22;52783;50.502;8.190;2023-03-14T01:33:43;10.30;99.90
66013;DHT22;52783;50.502;8.190;2023-03-14T01:36:09;10.20;99.90
66013;DHT22;52783;50.502;8.190;2023-03-14T01:38:36;10.10;99.90
66013;DHT22;52783;50.502;8.190;2023-03-14T01:41:02;10.00;99.90
66013;DHT22;52783;50.502;8.190;2023-03-14T01:43:29;10.00;99.90
66013;DHT22;52783;50.502;8.190;2023-03-14T01:48:37;9.90;99.90
66013;DHT22;52783;50.502;8.190;2023-03-14T01:51:07;9.80;99.90
66013;DHT22;52783;50.502;8.190;2023-03-14T01:53:35;9.80;99.90
66013;DHT22;52783;50.502;8.190;2023-03-14T01:56:02;9.90;99.90
66013;DHT22;52783;50.502;8.190;2023-03-14T01:58:30;9.90;99.90
66013;DHT22;52783;50.502;8.190;2023-03-14T02:01:02;9.90;99.90
66013;DHT22;52783;50.502;8.190;2023-03-14T02:03:30;9.90;99.90
66013;DHT22;52783;50.502;8.190;2023-03-14T02:06:03;9.90;99.90
66013;DHT22;52783;50.502;8.190;2023-03-14T02:08:31;9.90;99.90
66013;DHT22;52783;50.502;8.190;2023-03-14T02:10:56;10.00;99.90
66013;DHT22;52783;50.502;8.190;2023-03-14T02:13:22;10.00;99.90
66013;DHT22;52783;50.502;8.190;2023-03-14T02:15:48;10.00;99.90
66013;DHT22;52783;50.502;8.190;2023-03-14T02:18:15;10.00;99.90
66013;DHT22;52783;50.502;8.190;2023-03-14T02:23:53;10.10;99.90
66013;DHT22;52783;50.502;8.190;2023-03-14T02:27:00;10.10;99.90
66013;DHT22;52783;50.502;8.190;2023-03-14T02:29:26;10.20;99.90
66013;DHT22;52783;50.502;8.190;2023-03-14T02:31:52;10.10;99.90
66013;DHT22;52783;50.502;8.190;2023-03-14T02:34:18;10.10;99.90
66013;DHT22;52783;50.502;8.190;2023-03-14T02:36:44;10.20;99.90
66013;DHT22;52783;50.502;8.190;2023-03-14T02:39:15;10.20;99.90
66013;DHT22;52783;50.502;8.190;2023-03-14T02:41:41;10.20;99.90
66013;DHT22;52783;50.502;8.190;2023-03-14T02:44:07;10.20;99.90
66013;DHT22;52783;50.502;8.190;2023-03-14T02:46:33;10.20;99.90
66013;DHT22;52783;50.502;8.190;2023-03-14T02:49:04;10.20;99.90
66013;DHT22;52783;50.502;8.190;2023-03-14T02:51:32;10.20;99.90
66013;DHT22;52783;50.502;8.190;2023-03-14T02:53:57;10.20;99.90
66013;DHT22;52783;50.502;8.190;2023-03-14T02:56:23;10.20;99.90
66013;DHT22;52783;50.502;8.190;2023-03-14T02:58:49;10.20;99.90
66013;DHT22;52783;50.502;8.190;2023-03-14T03:01:14;10.20;99.90
66013;DHT22;52783;50.502;8.190;2023-03-14T03:03:40;10.20;99.90
66013;DHT22;52783;50.502;8.190;2023-03-14T03:06:05;10.20;99.90
66013;DHT22;52783;50.502;8.190;2023-03-14T03:08:31;10.20;99.90
66013;DHT22;52783;50.502;8.190;2023-03-14T03:10:57;10.20;99.90
66013;DHT22;52783;50.502;8.190;2023-03-14T03:13:23;10.20;99.90
66013;DHT22;52783;50.502;8.190;2023-03-14T03:15:49;10.20;99.90
66013;DHT22;52783;50.502;8.190;2023-03-14T03:18:14;10.20;99.90
66013;DHT22;52783;50.502;8.190;2023-03-14T03:20:40;10.20;99.90
66013;DHT22;52783;50.502;8.190;2023-03-14T03:23:05;10.20;99.90
66013;DHT22;52783;50.502;8.190;2023-03-14T03:25:31;10.20;99.90
66013;DHT22;52783;50.502;8.190;2023-03-14T03:27:57;10.20;99.90
66013;DHT22;52783;50.502;8.190;2023-03-14T03:30:23;10.20;99.90
66013;DHT22;52783;50.502;8.190;2023-03-14T03:32:49;10.20;99.90
66013;DHT22;52783;50.502;8.190;2023-03-14T03:35:14;10.20;99.90
66013;DHT22;52783;50.502;8.190;2023-03-14T03:37:40;10.20;99.90
66013;DHT22;52783;50.502;8.190;2023-03-14T03:40:07;10.20;99.90
66013;DHT22;52783;50.502;8.190;2023-03-14T03:42:33;10.10;99.90
66013;DHT22;52783;50.502;8.190;2023-03-14T03:45:00;10.00;99.90
66013;DHT22;52783;50.502;8.190;2023-03-14T03:47:26;10.00;99.90
66013;DHT22;52783;50.502;8.190;2023-03-14T03:49:52;10.00;99.90
66013;DHT22;52783;50.502;8.190;2023-03-14T03:52:17;10.00;99.90
66013;DHT22;52783;50.502;8.190;2023-03-14T03:54:43;9.90;99.90
66013;DHT22;52783;50.502;8.190;2023-03-14T03:57:08;9.90;99.90
66013;DHT22;52783;50.502;8.190;2023-03-14T03:59:34;9.90;99.90
66013;DHT22;52783;50.502;8.190;2023-03-14T04:02:00;9.90;99.90
66013;DHT22;52783;50.502;8.190;2023-03-14T04:04:25;9.80;99.90
66013;DHT22;52783;50.502;8.190;2023-03-14T04:06:51;9.90;99.90
66013;DHT22;52783;50.502;8.190;2023-03-14T04:09:16;9.80;99.90
66013;DHT22;52783;50.502;8.190;2023-03-14T04:11:42;9.80;99.90
66013;DHT22;52783;50.502;8.190;2023-03-14T04:14:07;9.80;99.90
66013;DHT22;52783;50.502;8.190;2023-03-14T04:16:33;9.80;99.90
66013;DHT22;52783;50.502;8.190;2023-03-14T04:19:00;9.80;99.90
66013;DHT22;52783;50.502;8.190;2023-03-14T04:21:25;9.80;99.90
66013;DHT22;52783;50.502;8.190;2023-03-14T04:23:51;9.90;99.90
66013;DHT22;52783;50.502;8.190;2023-03-14T04:26:17;9.80;99.90
66013;DHT22;52783;50.502;8.190;2023-03-14T04:28:42;9.90;99.90
66013;DHT22;52783;50.502;8.190;2023-03-14T04:31:10;9.90;99.90
66013;DHT22;52783;50.502;8.190;2023-03-14T04:33:36;9.90;99.90
66013;DHT22;52783;50.502;8.190;2023-03-14T04:36:03;9.90;99.90
66013;DHT22;52783;50.502;8.190;2023-03-14T04:38:29;9.90;99.90
66013;DHT22;52783;50.502;8.190;2023-03-14T04:40:55;9.90;99.90
66013;DHT22;52783;50.502;8.190;2023-03-14T04:43:20;9.90;99.90
66013;DHT22;52783;50.502;8.190;2023-03-14T04:45:46;9.90;99.90
66013;DHT22;52783;50.502;8.190;2023-03-14T04:48:12;9.90;99.90
66013;DHT22;52783;50.502;8.190;2023-03-14T04:50:38;10.00;99.90
66013;DHT22;52783;50.502;8.190;2023-03-14T04:53:04;10.00;99.90
66013;DHT22;52783;50.502;8.190;2023-03-14T04:55:31;10.00;99.90
66013;DHT22;52783;50.502;8.190;2023-03-14T04:57:57;10.00;99.90
66013;DHT22;52783;50.502;8.190;2023-03-14T05:00:23;10.00;99.90
66013;DHT22;52783;50.502;8.190;2023-03-14T05:02:48;10.00;99.90
66013;DHT22;52783;50.502;8.190;2023-03-14T05:05:14;10.00;99.90
66013;DHT22;52783;50.502;8.190;2023-03-14T05:07:40;10.00;99.90
66013;DHT22;52783;50.502;8.190;2023-03-14T05:10:05;10.00;99.90
66013;DHT22;52783;50.502;8.190;2023-03-14T05:12:31;10.00;99.90
66013;DHT22;52783;50.502;8.190;2023-03-14T05:14:56;10.00;99.90
66013;DHT22;52783;50.502;8.190;2023-03-14T05:17:22;10.00;99.90
66013;DHT22;52783;50.502;8.190;2023-03-14T05:19:47;10.00;99.90
66013;DHT22;52783;50.502;8.190;2023-03-14T05:22:13;10.00;99.90
66013;DHT22;52783;50.502;8.190;2023-03-14T05:24:38;10.00;99.90
66013;DHT22;52783;50.502;8.190;2023-03-14T05:27:04;10.00;99.90
66013;DHT22;52783;50.502;8.190;2023-03-14T05:29:30;10.00;99.90
66013;DHT22;52783;50.502;8.190;2023-03-14T05:31:55;9.90;99.90
66013;DHT22;52783;50.502;8.190;2023-03-14T05:34:21;9.90;99.90
66013;DHT22;52783;50.502;8.190;2023-03-14T05:36:46;9.90;99.90
66013;DHT22;52783;50.502;8.190;2023-03-14T05:39:12;9.90;99.90
66013;DHT22;52783;50.502;8.190;2023-03-14T05:41:37;9.90;99.90
66013;DHT22;52783;50.502;8.190;2023-03-14T05:44:03;9.90;99.90
66013;DHT22;52783;50.502;8.190;2023-03-14T05:46:29;9.90;99.90
66013;DHT22;52783;50.502;8.190;2023-03-14T05:48:56;9.90;99.90
66013;DHT22;52783;50.502;8.190;2023-03-14T05:51:22;9.90;99.90
66013;DHT22;52783;50.502;8.190;2023-03-14T05:53:47;9.90;99.90
66013;DHT22;52783;50.502;8.190;2023-03-14T05:56:13;9.90;99.90
66013;DHT22;52783;50.502;8.190;2023-03-14T05:58:38;9.90;99.90
66013;DHT22;52783;50.502;8.190;2023-03-14T06:01:05;9.90;99.90
66013;DHT22;52783;50.502;8.190;2023-03-14T06:03:31;9.90;99.90
66013;DHT22;52783;50.502;8.190;2023-03-14T06:05:57;9.80;99.90
66013;DHT22;52783;50.502;8.190;2023-03-14T06:08:23;9.80;99.90
66013;DHT22;52783;50.502;8.190;2023-03-14T06:10:50;9.70;99.90
66013;DHT22;52783;50.502;8.190;2023-03-14T06:13:15;9.60;99.90
66013;DHT22;52783;50.502;8.190;2023-03-14T06:15:41;9.70;99.90
66013;DHT22;52783;50.502;8.190;2023-03-14T06:18:07;9.60;99.90
66013;DHT22;52783;50.502;8.190;2023-03-14T06:20:36;9.60;99.90
66013;DHT22;52783;50.502;8.190;2023-03-14T06:23:01;9.60;99.90
66013;DHT22;52783;50.502;8.190;2023-03-14T06:25:27;9.60;99.90
66013;DHT22;52783;50.502;8.190;2023-03-14T06:27:52;9.60;99.90
66013;DHT22;52783;50.502;8.190;2023-03-14T06:30:17;9.60;99.90
66013;DHT22;52783;50.502;8.190;2023-03-14T06:32:43;9.60;99.90
66013;DHT22;52783;50.502;8.190;2023-03-14T06:35:09;9.60;99.90
66013;DHT22;52783;50.502;8.190;2023-03-14T06:37:34;9.60;99.90
66013;DHT22;52783;50.502;8.190;2023-03-14T06:40:00;9.60;99.90
66013;DHT22;52783;50.502;8.190;2023-03-14T06:42:25;9.50;99.90
66013;DHT22;52783;50.502;8.190;2023-03-14T06:44:51;9.50;99.90
66013;DHT22;52783;50.502;8.190;2023-03-14T06:47:16;9.60;99.90
66013;DHT22;52783;50.502;8.190;2023-03-14T06:49:42;9.60;99.90
66013;DHT22;52783;50.502;8.190;2023-03-14T06:52:07;9.60;99.90
66013;DHT22;52783;50.502;8.190;2023-03-14T06:54:33;9.60;99.90
66013;DHT22;52783;50.502;8.190;2023-03-14T06:56:58;9.70;99.90
66013;DHT22;52783;50.502;8.190;2023-03-14T06:59:24;9.80;99.90
66013;DHT22;52783;50.502;8.190;2023-03-14T07:01:49;9.80;99.90
66013;DHT22;52783;50.502;8.190;2023-03-14T07:04:16;9.90;99.90
66013;DHT22;52783;50.502;8.190;2023-03-14T07:06:42;9.90;99.90
66013;DHT22;52783;50.502;8.190;2023-03-14T07:09:10;9.90;99.90
66013;DHT22;52783;50.502;8.190;2023-03-14T07:11:36;9.90;99.90
66013;DHT22;52783;50.502;8.190;2023-03-14T07:14:02;9.90;99.90
66013;DHT22;52783;50.502;8.190;2023-03-14T07:16:27;9.90;99.90
66013;DHT22;52783;50.502;8.190;2023-03-14T07:18:57;9.90;99.90
66013;DHT22;52783;50.502;8.190;2023-03-14T07:21:22;9.90;99.90
66013;DHT22;52783;50.502;8.190;2023-03-14T07:23:48;9.90;99.90
66013;DHT22;52783;50.502;8.190;2023-03-14T07:26:13;9.90;99.90
66013;DHT22;52783;50.502;8.190;2023-03-14T07:28:39;9.90;99.90
66013;DHT22;52783;50.502;8.190;2023-03-14T07:31:04;10.00;99.90
66013;DHT22;52783;50.502;8.190;2023-03-14T07:33:30;9.90;99.90
66013;DHT22;52783;50.502;8.190;2023-03-14T07:35:56;9.90;99.90
66013;DHT22;52783;50.502;8.190;2023-03-14T07:38:21;9.90;99.90
66013;DHT22;52783;50.502;8.190;2023-03-14T07:40:47;9.90;99.90
66013;DHT22;52783;50.502;8.190;2023-03-14T07:43:12;10.00;99.90
66013;DHT22;52783;50.502;8.190;2023-03-14T07:45:38;10.10;99.90
66013;DHT22;52783;50.502;8.190;2023-03-14T07:48:03;10.00;99.90
66013;DHT22;52783;50.502;8.190;2023-03-14T07:50:29;10.00;99.90
66013;DHT22;52783;50.502;8.190;2023-03-14T07:53:29;10.00;99.90
66013;DHT22;52783;50.502;8.190;2023-03-14T07:56:00;10.10;99.90
66013;DHT22;52783;50.502;8.190;2023-03-14T07:58:26;10.10;99.90
66013;DHT22;52783;50.502;8.190;2023-03-14T08:00:52;10.20;99.90
66013;DHT22;52783;50.502;8.190;2023-03-14T08:03:18;10.30;99.90
66013;DHT22;52783;50.502;8.190;2023-03-14T08:05:47;10.40;99.90
66013;DHT22;52783;50.502;8.190;2023-03-14T08:08:13;10.40;99.90
66013;DHT22;52783;50.502;8.190;2023-03-14T08:10:38;10.50;99.90
66013;DHT22;52783;50.502;8.190;2023-03-14T08:13:04;10.60;99.90
66013;DHT22;52783;50.502;8.190;2023-03-14T08:15:30;10.60;99.90
66013;DHT22;52783;50.502;8.190;2023-03-14T08:17:56;10.60;99.90
66013;DHT22;52783;50.502;8.190;2023-03-14T08:20:24;10.60;99.90
66013;DHT22;52783;50.502;8.190;2023-03-14T08:22:49;10.70;99.90
66013;DHT22;52783;50.502;8.190;2023-03-14T08:25:15;10.80;99.90
66013;DHT22;52783;50.502;8.190;2023-03-14T08:27:41;10.80;99.90
66013;DHT22;52783;50.502;8.190;2023-03-14T08:30:11;10.80;99.90
66013;DHT22;52783;50.502;8.190;2023-03-14T08:32:37;10.90;99.90
66013;DHT22;52783;50.502;8.190;2023-03-14T08:35:03;10.90;99.90
66013;DHT22;52783;50.502;8.190;2023-03-14T08:37:32;11.00;99.90
66013;DHT22;52783;50.502;8.190;2023-03-14T08:39:57;10.90;99.90
66013;DHT22;52783;50.502;8.190;2023-03-14T08:42:23;11.00;99.90
66013;DHT22;52783;50.502;8.190;2023-03-14T08:44:48;10.90;99.90
66013;DHT22;52783;50.502;8.190;2023-03-14T08:47:15;11.00;99.90
66013;DHT22;52783;50.502;8.190;2023-03-14T08:49:40;11.10;99.90
66013;DHT22;52783;50.502;8.190;2023-03-14T08:52:06;11.10;99.90
66013;DHT22;52783;50.502;8.190;2023-03-14T08:54:31;11.10;99.90
66013;DHT22;52783;50.502;8.190;2023-03-14T08:56:57;11.10;99.90
66013;DHT22;52783;50.502;8.190;2023-03-14T08:59:23;11.20;99.90
66013;DHT22;52783;50.502;8.190;2023-03-14T09:01:49;11.20;99.90
66013;DHT22;52783;50.502;8.190;2023-03-14T09:04:14;11.20;99.90
66013;DHT22;52783;50.502;8.190;2023-03-14T09:06:40;11.30;99.90
66013;DHT22;52783;50.502;8.190;2023-03-14T09:09:06;11.30;99.90
66013;DHT22;52783;50.502;8.190;2023-03-14T09:11:32;11.40;99.90
66013;DHT22;52783;50.502;8.190;2023-03-14T09:13:58;11.20;99.90
66013;DHT22;52783;50.502;8.190;2023-03-14T09:16:24;11.20;99.90
66013;DHT22;52783;50.502;8.190;2023-03-14T09:18:49;11.30;99.90
66013;DHT22;52783;50.502;8.190;2023-03-14T09:21:15;11.30;99.90
66013;DHT22;52783;50.502;8.190;2023-03-14T09:23:41;11.40;99.90
66013;DHT22;52783;50.502;8.190;2023-03-14T09:26:06;11.50;99.90
66013;DHT22;52783;50.502;8.190;2023-03-14T09:28:32;11.60;99.90
66013;DHT22;52783;50.502;8.190;2023-03-14T09:30:58;11.60;99.90
66013;DHT22;52783;50.502;8.190;2023-03-14T09:33:23;11.70;99.90
66013;DHT22;52783;50.502;8.190;2023-03-14T09:35:50;11.70;99.90
66013;DHT22;52783;50.502;8.190;2023-03-14T09:38:16;11.60;99.90
66013;DHT22;52783;50.502;8.190;2023-03-14T09:40:42;11.60;99.90
66013;DHT22;52783;50.502;8.190;2023-03-14T09:43:14;11.50;99.90
66013;DHT22;52783;50.502;8.190;2023-03-14T09:45:41;11.40;99.90
66013;DHT22;52783;50.502;8.190;2023-03-14T09:48:16;11.40;99.90
66013;DHT22;52783;50.502;8.190;2023-03-14T09:50:46;11.50;99.90
66013;DHT22;52783;50.502;8.190;2023-03-14T09:53:17;11.60;99.90
66013;DHT22;52783;50.502;8.190;2023-03-14T09:55:43;11.50;99.90
66013;DHT22;52783;50.502;8.190;2023-03-14T09:58:13;11.50;99.90
66013;DHT22;52783;50.502;8.190;2023-03-14T10:00:41;11.60;99.90
66013;DHT22;52783;50.502;8.190;2023-03-14T10:05:40;11.50;99.90
66013;DHT22;52783;50.502;8.190;2023-03-14T10:08:05;11.60;99.90
66013;DHT22;52783;50.502;8.190;2023-03-14T10:10:32;11.70;99.90
66013;DHT22;52783;50.502;8.190;2023-03-14T10:13:05;11.70;99.90
66013;DHT22;52783;50.502;8.190;2023-03-14T10:15:34;11.70;99.90
66013;DHT22;52783;50.502;8.190;2023-03-14T10:18:02;11.70;99.90
66013;DHT22;52783;50.502;8.190;2023-03-14T10:20:42;11.70;99.90
66013;DHT22;52783;50.502;8.190;2023-03-14T10:25:46;11.50;99.90
66013;DHT22;52783;50.502;8.190;2023-03-14T10:28:32;11.30;99.90
66013;DHT22;52783;50.502;8.190;2023-03-14T10:30:59;11.20;99.90
66013;DHT22;52783;50.502;8.190;2023-03-14T10:33:31;11.20;99.90
66013;DHT22;52783;50.502;8.190;2023-03-14T10:35:58;11.20;99.90
66013;DHT22;52783;50.502;8.190;2023-03-14T10:38:35;11.20;99.90
66013;DHT22;52783;50.502;8.190;2023-03-14T10:41:04;11.20;99.90
66013;DHT22;52783;50.502;8.190;2023-03-14T10:43:40;11.30;99.90
66013;DHT22;52783;50.502;8.190;2023-03-14T10:46:11;11.40;99.90
66013;DHT22;52783;50.502;8.190;2023-03-14T10:48:38;11.70;99.90
66013;DHT22;52783;50.502;8.190;2023-03-14T10:51:30;11.70;99.90
66013;DHT22;52783;50.502;8.190;2023-03-14T10:54:04;11.70;99.90
66013;DHT22;52783;50.502;8.190;2023-03-14T10:56:37;11.60;99.90
66013;DHT22;52783;50.502;8.190;2023-03-14T10:59:03;11.60;99.90
66013;DHT22;52783;50.502;8.190;2023-03-14T11:04:44;11.30;99.90
66013;DHT22;52783;50.502;8.190;2023-03-14T11:10:18;11.20;99.90
66013;DHT22;52783;50.502;8.190;2023-03-14T11:18:40;10.70;99.90
66013;DHT22;52783;50.502;8.190;2023-03-14T11:26:37;9.00;99.90
66013;DHT22;52783;50.502;8.190;2023-03-14T11:31:46;8.30;99.90
66013;DHT22;52783;50.502;8.190;2023-03-14T11:34:31;8.30;99.90
66013;DHT22;52783;50.502;8.190;2023-03-14T11:37:05;8.20;99.90
66013;DHT22;52783;50.502;8.190;2023-03-14T11:39:37;8.20;99.90
66013;DHT22;52783;50.502;8.190;2023-03-14T11:42:04;8.10;99.90
66013;DHT22;52783;50.502;8.190;2023-03-14T11:44:34;8.20;99.90
66013;DHT22;52783;50.502;8.190;2023-03-14T11:47:22;8.20;99.90
66013;DHT22;52783;50.502;8.190;2023-03-14T11:50:15;8.10;99.90
66013;DHT22;52783;50.502;8.190;2023-03-14T11:52:49;8.10;99.90
66013;DHT22;52783;50.502;8.190;2023-03-14T11:55:28;8.20;99.90
66013;DHT22;52783;50.502;8.190;2023-03-14T11:58:00;8.10;99.90
66013;DHT22;52783;50.502;8.190;2023-03-14T12:00:26;8.20;99.90
66013;DHT22;52783;50.502;8.190;2023-03-14T12:08:45;7.90;99.90
66013;DHT22;52783;50.502;8.190;2023-03-14T12:13:51;8.00;99.90
66013;DHT22;52783;50.502;8.190;2023-03-14T12:18:49;8.10;99.90
66013;DHT22;52783;50.502;8.190;2023-03-14T12:21:15;8.20;99.90
66013;DHT22;52783;50.502;8.190;2023-03-14T12:23:56;8.40;99.90
66013;DHT22;52783;50.502;8.190;2023-03-14T12:26:24;8.50;99.90
66013;DHT22;52783;50.502;8.190;2023-03-14T12:28:52;8.70;99.90
66013;DHT22;52783;50.502;8.190;2023-03-14T12:34:29;8.60;99.90
66013;DHT22;52783;50.502;8.190;2023-03-14T12:37:06;8.70;99.90
66013;DHT22;52783;50.502;8.190;2023-03-14T12:44:42;8.70;99.90
66013;DHT22;52783;50.502;8.190;2023-03-14T12:49:42;8.40;99.90
66013;DHT22;52783;50.502;8.190;2023-03-14T12:52:16;8.40;99.90
66013;DHT22;52783;50.502;8.190;2023-03-14T12:55:10;8.40;99.90
66013;DHT22;52783;50.502;8.190;2023-03-14T12:57:53;8.50;99.90
66013;DHT22;52783;50.502;8.190;2023-03-14T13:00:31;8.60;99.90
66013;DHT22;52783;50.502;8.190;2023-03-14T13:03:12;8.60;99.90
66013;DHT22;52783;50.502;8.190;2023-03-14T13:05:56;8.50;99.90
66013;DHT22;52783;50.502;8.190;2023-03-14T13:08:43;8.50;99.90
66013;DHT22;52783;50.502;8.190;2023-03-14T13:11:14;8.60;99.90
66013;DHT22;52783;50.502;8.190;2023-03-14T13:13:49;8.70;99.90
66013;DHT22;52783;50.502;8.190;2023-03-14T13:16:20;8.70;99.90
66013;DHT22;52783;50.502;8.190;2023-03-14T13:18:50;8.50;99.90
66013;DHT22;52783;50.502;8.190;2023-03-14T13:21:21;8.30;99.90
66013;DHT22;52783;50.502;8.190;2023-03-14T13:24:00;8.10;99.90
66013;DHT22;52783;50.502;8.190;2023-03-14T13:26:41;8.00;99.90
66013;DHT22;52783;50.502;8.190;2023-03-14T13:29:29;8.20;99.90
66013;DHT22;52783;50.502;8.190;2023-03-14T13:31:59;8.50;99.90
66013;DHT22;52783;50.502;8.190;2023-03-14T13:34:28;8.70;99.90
66013;DHT22;52783;50.502;8.190;2023-03-14T13:36:54;8.60;99.90
66013;DHT22;52783;50.502;8.190;2023-03-14T13:39:25;8.40;99.90
66013;DHT22;52783;50.502;8.190;2023-03-14T13:41:54;8.20;99.90
66013;DHT22;52783;50.502;8.190;2023-03-14T13:46:52;7.70;99.90
66013;DHT22;52783;50.502;8.190;2023-03-14T13:49:24;7.70;99.90
66013;DHT22;52783;50.502;8.190;2023-03-14T13:51:49;7.60;99.90
66013;DHT22;52783;50.502;8.190;2023-03-14T13:54:17;7.70;99.90
66013;DHT22;52783;50.502;8.190;2023-03-14T13:56:44;7.90;99.90
66013;DHT22;52783;50.502;8.190;2023-03-14T14:01:52;7.70;99.90
66013;DHT22;52783;50.502;8.190;2023-03-14T14:04:23;7.70;99.90
66013;DHT22;52783;50.502;8.190;2023-03-14T14:06:56;7.70;99.90
66013;DHT22;52783;50.502;8.190;2023-03-14T14:09:34;7.70;99.90
66013;DHT22;52783;50.502;8.190;2023-03-14T14:12:13;7.80;99.90
66013;DHT22;52783;50.502;8.190;2023-03-14T14:15:02;7.80;99.90
66013;DHT22;52783;50.502;8.190;2023-03-14T14:17:34;7.80;99.90
66013;DHT22;52783;50.502;8.190;2023-03-14T14:20:02;8.10;99.90
66013;DHT22;52783;50.502;8.190;2023-03-14T14:22:30;8.00;99.90
66013;DHT22;52783;50.502;8.190;2023-03-14T14:24:56;8.30;99.90
66013;DHT22;52783;50.502;8.190;2023-03-14T14:27:33;8.50;99.90
66013;DHT22;52783;50.502;8.190;2023-03-14T14:30:28;8.40;99.90
66013;DHT22;52783;50.502;8.190;2023-03-14T14:32:52;8.50;99.90
66013;DHT22;52783;50.502;8.190;2023-03-14T14:35:34;8.50;99.90
66013;DHT22;52783;50.502;8.190;2023-03-14T14:38:00;8.50;99.90
66013;DHT22;52783;50.502;8.190;2023-03-14T14:40:30;7.70;99.90
66013;DHT22;52783;50.502;8.190;2023-03-14T14:43:03;7.00;99.90
66013;DHT22;52783;50.502;8.190;2023-03-14T14:45:29;6.50;99.90
66013;DHT22;52783;50.502;8.190;2023-03-14T14:50:32;6.20;99.90
66013;DHT22;52783;50.502;8.190;2023-03-14T14:53:00;6.20;99.90
66013;DHT22;52783;50.502;8.190;2023-03-14T14:55:34;6.20;99.90
66013;DHT22;52783;50.502;8.190;2023-03-14T14:58:14;6.20;99.90
66013;DHT22;52783;50.502;8.190;2023-03-14T15:00:51;6.40;99.90
66013;DHT22;52783;50.502;8.190;2023-03-14T15:03:17;6.40;99.90
66013;DHT22;52783;50.502;8.190;2023-03-14T15:05:43;6.50;99.90
66013;DHT22;52783;50.502;8.190;2023-03-14T15:08:10;6.50;99.90
66013;DHT22;52783;50.502;8.190;2023-03-14T15:10:36;6.50;99.90
66013;DHT22;52783;50.502;8.190;2023-03-14T15:13:02;6.50;99.90
66013;DHT22;52783;50.502;8.190;2023-03-14T15:15:27;6.60;99.90
66013;DHT22;52783;50.502;8.190;2023-03-14T15:17:53;6.80;99.90
66013;DHT22;52783;50.502;8.190;2023-03-14T15:20:18;6.90;99.90
66013;DHT22;52783;50.502;8.190;2023-03-14T15:22:45;7.10;99.90
66013;DHT22;52783;50.502;8.190;2023-03-14T15:25:11;7.10;99.90
66013;DHT22;52783;50.502;8.190;2023-03-14T15:27:38;7.20;99.90
66013;DHT22;52783;50.502;8.190;2023-03-14T15:30:14;7.30;99.90
66013;DHT22;52783;50.502;8.190;2023-03-14T15:32:40;7.30;99.90
66013;DHT22;52783;50.502;8.190;2023-03-14T15:35:06;7.30;99.90
66013;DHT22;52783;50.502;8.190;2023-03-14T15:37:32;7.30;99.90
66013;DHT22;52783;50.502;8.190;2023-03-14T15:39:58;7.40;99.90
66013;DHT22;52783;50.502;8.190;2023-03-14T15:42:24;7.30;99.90
66013;DHT22;52783;50.502;8.190;2023-03-14T15:44:49;7.30;99.90
66013;DHT22;52783;50.502;8.190;2023-03-14T15:47:15;7.40;99.90
66013;DHT22;52783;50.502;8.190;2023-03-14T15:49:40;7.30;99.90
66013;DHT22;52783;50.502;8.190;2023-03-14T15:52:06;7.10;99.90
66013;DHT22;52783;50.502;8.190;2023-03-14T15:54:33;7.00;99.90
66013;DHT22;52783;50.502;8.190;2023-03-14T15:56:59;6.80;99.90
66013;DHT22;52783;50.502;8.190;2023-03-14T15:59:25;6.80;99.90
66013;DHT22;52783;50.502;8.190;2023-03-14T16:01:50;6.60;99.90
66013;DHT22;52783;50.502;8.190;2023-03-14T16:04:16;6.40;99.90
66013;DHT22;52783;50.502;8.190;2023-03-14T16:06:43;6.40;99.90
66013;DHT22;52783;50.502;8.190;2023-03-14T16:09:10;6.30;99.90
66013;DHT22;52783;50.502;8.190;2023-03-14T16:11:35;6.30;99.90
66013;DHT22;52783;50.502;8.190;2023-03-14T16:14:01;6.30;99.90
66013;DHT22;52783;50.502;8.190;2023-03-14T16:16:26;6.20;99.90
66013;DHT22;52783;50.502;8.190;2023-03-14T16:18:52;6.30;99.90
66013;DHT22;52783;50.502;8.190;2023-03-14T16:21:19;6.30;99.90
66013;DHT22;52783;50.502;8.190;2023-03-14T16:23:45;6.30;99.90
66013;DHT22;52783;50.502;8.190;2023-03-14T16:26:18;6.20;99.90
66013;DHT22;52783;50.502;8.190;2023-03-14T16:28:45;6.40;99.90
66013;DHT22;52783;50.502;8.190;2023-03-14T16:31:14;6.40;99.90
66013;DHT22;52783;50.502;8.190;2023-03-14T16:33:41;6.40;99.90
66013;DHT22;52783;50.502;8.190;2023-03-14T16:36:08;6.20;99.90
66013;DHT22;52783;50.502;8.190;2023-03-14T16:38:35;6.20;99.90
66013;DHT22;52783;50.502;8.190;2023-03-14T16:41:04;6.10;99.90
66013;DHT22;52783;50.502;8.190;2023-03-14T16:43:30;6.00;99.90
66013;DHT22;52783;50.502;8.190;2023-03-14T16:45:58;6.00;99.90